Time;durP1;ratioP1;P1;durP2;ratioP2;P2;SDS_P1;SDS_P2;PMS_P1;PMS_P2;Temp;Humidity;BMP_temperature;BMP_pressure;BME280_temperature;BME280_humidity;BME280_pressure;Samples;Min_cycle;Max_cycle;Signal;HPM_P1;HPM_P2
2021/06/02 00:00:44;;;;;;;3.83;2.78;;;19.00;45.40;;;;;;5010874;28;20124;-68
2021/06/02 00:03:14;;;;;;;4.35;2.70;;;18.90;45.40;;;;;;5010454;28;20066;-68
2021/06/02 00:05:44;;;;;;;3.95;2.72;;;19.00;45.00;;;;;;5011530;28;20128;-68
2021/06/02 00:08:12;;;;;;;5.45;3.05;;;18.90;45.00;;;;;;5007914;28;20125;-69
2021/06/02 00:10:39;;;;;;;3.95;2.60;;;18.80;45.50;;;;;;5011094;28;20133;-68
2021/06/02 00:13:07;;;;;;;6.30;3.20;;;18.80;45.60;;;;;;5010254;28;20133;-69
2021/06/02 00:15:34;;;;;;;5.30;2.78;;;18.70;45.20;;;;;;5008300;28;20137;-69
2021/06/02 00:18:01;;;;;;;5.28;3.28;;;18.90;45.00;;;;;;5010842;28;20042;-69
2021/06/02 00:20:29;;;;;;;6.88;3.20;;;18.90;45.00;;;;;;5008301;28;20053;-66
2021/06/02 00:22:56;;;;;;;7.35;3.28;;;18.70;45.30;;;;;;5007973;28;20069;-67
2021/06/02 00:25:23;;;;;;;5.53;2.90;;;18.50;45.70;;;;;;5010008;28;20141;-67
2021/06/02 00:27:54;;;;;;;4.35;2.90;;;18.40;46.20;;;;;;5009160;28;20141;-69
2021/06/02 00:30:22;;;;;;;6.00;2.90;;;18.20;46.40;;;;;;5011367;28;20058;-67
2021/06/02 00:32:50;;;;;;;4.82;2.88;;;18.20;46.60;;;;;;5007663;28;20080;-67
2021/06/02 00:35:18;;;;;;;8.07;3.03;;;18.10;46.80;;;;;;5005688;28;20046;-67
2021/06/02 00:37:47;;;;;;;6.95;3.47;;;18.10;46.80;;;;;;5005896;28;20078;-67
2021/06/02 00:40:27;;;;;;;8.13;2.88;;;18.10;46.70;;;;;;5008349;28;20081;-68
2021/06/02 00:42:54;;;;;;;7.53;2.85;;;18.00;46.80;;;;;;5010289;28;20161;-68
2021/06/02 00:45:22;;;;;;;5.65;2.75;;;18.10;46.70;;;;;;5009512;28;20054;-67
2021/06/02 00:47:49;;;;;;;6.53;3.35;;;18.20;46.50;;;;;;5002268;28;20541;-68
2021/06/02 00:50:16;;;;;;;4.22;2.80;;;18.10;46.70;;;;;;5007872;28;20124;-67
2021/06/02 00:52:44;;;;;;;4.47;2.45;;;18.00;46.90;;;;;;5006918;28;20132;-67
2021/06/02 00:55:11;;;;;;;5.85;3.20;;;17.90;46.90;;;;;;5011065;28;20045;-68
2021/06/02 00:57:44;;;;;;;5.72;2.80;;;17.80;47.50;;;;;;5009764;28;20411;-68
2021/06/02 01:00:12;;;;;;;8.90;3.05;;;17.80;47.40;;;;;;5008676;28;20481;-67
2021/06/02 01:02:45;;;;;;;5.75;2.80;;;17.60;47.40;;;;;;5010138;28;20042;-67
2021/06/02 01:05:14;;;;;;;5.38;2.53;;;17.70;47.80;;;;;;5009289;28;20100;-67
2021/06/02 01:07:42;;;;;;;7.13;3.00;;;17.90;47.00;;;;;;5009638;28;20064;-68
2021/06/02 01:10:09;;;;;;;4.22;2.63;;;17.90;47.10;;;;;;5011594;28;20081;-67
2021/06/02 01:12:41;;;;;;;6.78;3.17;;;18.00;47.10;;;;;;5008641;28;20193;-67
2021/06/02 01:15:08;;;;;;;6.80;3.03;;;18.20;47.00;;;;;;5020802;28;20532;-67
2021/06/02 01:17:36;;;;;;;6.10;3.03;;;18.10;47.20;;;;;;5005578;28;20058;-67
2021/06/02 01:20:05;;;;;;;6.13;3.15;;;18.10;47.40;;;;;;5007741;28;20104;-68
2021/06/02 01:22:36;;;;;;;6.15;3.22;;;18.10;47.70;;;;;;5010070;28;20108;-67
2021/06/02 01:25:11;;;;;;;5.13;2.95;;;18.10;47.70;;;;;;5005227;28;20097;-68
2021/06/02 01:27:39;;;;;;;6.28;3.10;;;18.10;48.10;;;;;;5009118;28;20129;-68
2021/06/02 01:30:12;;;;;;;4.97;2.92;;;18.00;48.20;;;;;;5011098;28;20141;-68
2021/06/02 01:33:07;;;;;;;5.70;3.20;;;17.90;48.70;;;;;;5007078;28;20081;-68
2021/06/02 01:35:44;;;;;;;4.95;2.90;;;17.90;48.70;;;;;;5005926;28;20045;-68
2021/06/02 01:38:32;;;;;;;6.35;3.05;;;17.90;48.90;;;;;;5010198;28;20093;-68
2021/06/02 01:41:17;;;;;;;7.85;3.60;;;17.70;49.00;;;;;;5010278;28;20125;-67
2021/06/02 01:44:11;;;;;;;6.03;3.28;;;17.70;49.20;;;;;;5008768;28;20227;-68
2021/06/02 01:47:15;;;;;;;5.53;3.25;;;17.80;49.30;;;;;;5010540;28;21764;-67
2021/06/02 01:50:02;;;;;;;12.40;3.20;;;17.60;49.70;;;;;;5009352;28;20436;-67
2021/06/02 01:52:51;;;;;;;6.30;3.03;;;17.40;49.90;;;;;;5011722;28;20138;-67
2021/06/02 01:55:43;;;;;;;5.05;3.30;;;17.50;49.90;;;;;;5008741;28;20070;-69
2021/06/02 01:58:47;;;;;;;7.07;2.90;;;17.60;49.60;;;;;;5007079;28;20121;-68
2021/06/02 02:01:38;;;;;;;5.43;3.03;;;17.30;50.20;;;;;;5005413;28;20046;-68
2021/06/02 02:04:37;;;;;;;3.90;2.88;;;17.50;49.80;;;;;;5010166;28;20058;-67
2021/06/02 02:07:28;;;;;;;5.47;3.25;;;17.30;49.60;;;;;;4999973;28;20084;-68
2021/06/02 02:10:29;;;;;;;4.95;3.00;;;17.40;49.90;;;;;;5007722;28;20081;-68
2021/06/02 02:13:19;;;;;;;4.40;2.58;;;17.30;50.30;;;;;;5008200;28;20042;-67
2021/06/02 02:16:07;;;;;;;5.10;2.95;;;17.20;50.60;;;;;;5007818;28;20045;-67
2021/06/02 02:19:02;;;;;;;5.97;3.13;;;17.10;50.50;;;;;;5003723;28;20088;-69
2021/06/02 02:21:59;;;;;;;4.70;2.95;;;17.00;51.00;;;;;;5022638;28;20042;-67
2021/06/02 02:24:47;;;;;;;3.80;2.80;;;16.90;51.20;;;;;;5011805;28;20088;-67
2021/06/02 02:27:16;;;;;;;3.95;2.63;;;16.80;51.10;;;;;;5007364;28;20134;-67
2021/06/02 02:30:01;;;;;;;5.72;3.00;;;16.90;51.40;;;;;;5005517;28;20073;-67
2021/06/02 02:32:53;;;;;;;6.97;3.75;;;16.80;51.40;;;;;;5007208;28;20588;-67
2021/06/02 02:35:44;;;;;;;4.88;3.20;;;16.80;51.50;;;;;;5007284;28;20053;-66
2021/06/02 02:38:30;;;;;;;5.63;3.17;;;17.00;51.50;;;;;;5006087;28;20145;-67
2021/06/02 02:41:19;;;;;;;4.97;3.13;;;17.00;51.60;;;;;;5006509;28;20080;-66
2021/06/02 02:44:05;;;;;;;7.30;4.50;;;16.90;51.90;;;;;;5006954;28;20148;-67
2021/06/02 02:46:38;;;;;;;7.18;3.13;;;16.80;52.10;;;;;;5004623;28;20136;-67
2021/06/02 02:49:11;;;;;;;5.28;3.28;;;16.80;52.50;;;;;;5006391;28;20052;-66
2021/06/02 02:51:45;;;;;;;5.78;3.45;;;16.80;52.70;;;;;;5003894;28;21141;-67
2021/06/02 02:54:25;;;;;;;5.80;3.25;;;16.80;52.70;;;;;;5004008;28;20045;-67
2021/06/02 02:57:13;;;;;;;4.77;2.93;;;16.80;52.50;;;;;;5006222;28;20081;-72
2021/06/02 02:59:44;;;;;;;4.85;2.90;;;16.80;52.70;;;;;;5006870;28;20096;-72
2021/06/02 03:02:32;;;;;;;5.82;3.58;;;16.70;52.80;;;;;;5007036;28;20559;-72
2021/06/02 03:05:01;;;;;;;4.80;3.45;;;16.70;53.20;;;;;;5001363;28;20046;-72
2021/06/02 03:07:36;;;;;;;5.93;3.30;;;16.60;53.20;;;;;;5003978;28;20080;-71
2021/06/02 03:10:12;;;;;;;4.93;3.35;;;16.70;53.30;;;;;;5005276;28;20089;-70
2021/06/02 03:12:57;;;;;;;4.40;3.03;;;16.60;52.90;;;;;;5005168;28;20080;-71
2021/06/02 03:15:45;;;;;;;7.32;3.50;;;16.40;53.30;;;;;;5022801;28;20116;-72
2021/06/02 03:18:43;;;;;;;8.13;4.15;;;16.50;53.20;;;;;;5004339;28;20512;-72
2021/06/02 03:21:25;;;;;;;5.85;3.80;;;16.60;52.70;;;;;;5006322;28;20493;-71
2021/06/02 03:24:20;;;;;;;7.68;3.97;;;16.50;52.90;;;;;;5021367;28;20523;-72
2021/06/02 03:26:54;;;;;;;5.43;3.80;;;16.50;53.20;;;;;;5005860;28;20497;-71
2021/06/02 03:29:52;;;;;;;9.73;4.60;;;16.30;53.50;;;;;;5003987;28;20058;-72
2021/06/02 03:32:46;;;;;;;10.02;4.70;;;16.30;53.70;;;;;;5005152;28;20144;-71
2021/06/02 03:35:20;;;;;;;10.52;4.88;;;16.50;53.60;;;;;;5007328;28;20054;-71
2021/06/02 03:37:58;;;;;;;12.60;5.22;;;16.40;53.80;;;;;;5004337;28;20531;-71
2021/06/02 03:40:28;;;;;;;12.05;5.00;;;16.30;54.00;;;;;;5005314;28;20124;-71
2021/06/02 03:43:23;;;;;;;9.07;5.30;;;16.10;54.10;;;;;;5006678;28;20121;-71
2021/06/02 03:46:04;;;;;;;8.82;5.53;;;16.00;54.50;;;;;;5005035;28;20089;-72
2021/06/02 03:48:44;;;;;;;12.63;5.75;;;16.10;54.50;;;;;;5003549;28;20480;-72
2021/06/02 03:51:18;;;;;;;8.80;5.55;;;16.10;54.40;;;;;;4998137;28;20555;-72
2021/06/02 03:54:06;;;;;;;7.95;4.90;;;16.30;54.20;;;;;;5042967;28;20070;-72
2021/06/02 03:57:03;;;;;;;10.05;5.03;;;16.10;54.20;;;;;;5009379;28;20065;-71
2021/06/02 04:00:12;;;;;;;5.88;3.70;;;16.20;53.50;;;;;;5011579;28;20485;-71
2021/06/02 04:03:05;;;;;;;5.45;3.60;;;16.20;53.20;;;;;;5006060;28;20136;-72
2021/06/02 04:05:52;;;;;;;5.45;3.65;;;16.20;53.00;;;;;;5010921;28;20497;-70
2021/06/02 04:09:00;;;;;;;4.93;3.70;;;15.90;53.10;;;;;;5007768;28;20133;-72
2021/06/02 04:11:42;;;;;;;6.60;3.60;;;16.00;53.30;;;;;;4968292;28;20089;-71
2021/06/02 04:14:10;;;;;;;8.15;3.75;;;15.90;53.50;;;;;;4973025;28;20491;-72
2021/06/02 04:16:42;;;;;;;9.27;3.85;;;15.80;53.40;;;;;;4992479;28;20188;-72
2021/06/02 04:19:13;;;;;;;4.75;3.78;;;15.90;53.50;;;;;;5006292;28;20148;-72
2021/06/02 04:21:45;;;;;;;6.13;3.90;;;16.00;53.70;;;;;;5040034;28;20100;-73
2021/06/02 04:24:14;;;;;;;8.27;3.78;;;15.90;53.60;;;;;;5009156;28;20073;-73
2021/06/02 04:26:43;;;;;;;7.38;3.80;;;16.00;53.80;;;;;;5009071;28;20823;-70
2021/06/02 04:29:13;;;;;;;7.95;4.00;;;15.90;54.10;;;;;;5009653;28;20132;-71
2021/06/02 04:32:06;;;;;;;6.18;3.67;;;15.90;54.30;;;;;;5007631;28;20049;-72
2021/06/02 04:34:34;;;;;;;6.03;3.75;;;15.80;54.70;;;;;;5009662;28;20082;-71
2021/06/02 04:37:03;;;;;;;6.75;4.30;;;15.70;55.00;;;;;;5012730;28;20563;-72
2021/06/02 04:39:31;;;;;;;6.93;4.50;;;15.70;55.10;;;;;;5011168;28;20073;-73
2021/06/02 04:42:03;;;;;;;9.98;4.68;;;15.70;55.20;;;;;;5010660;28;20062;-72
2021/06/02 04:44:31;;;;;;;7.53;5.40;;;15.80;55.00;;;;;;5008369;28;20057;-73
2021/06/02 04:46:59;;;;;;;12.60;6.38;;;16.00;54.50;;;;;;5003557;28;20045;-72
2021/06/02 04:49:38;;;;;;;12.77;6.90;;;16.30;54.10;;;;;;5008992;28;20133;-73
2021/06/02 04:52:33;;;;;;;12.40;6.60;;;16.70;53.60;;;;;;5007814;28;20501;-71
2021/06/02 04:55:13;;;;;;;10.63;6.60;;;17.00;52.60;;;;;;5007331;28;20521;-73
2021/06/02 04:58:01;;;;;;;16.02;6.68;;;17.40;52.30;;;;;;5008144;28;20069;-72
2021/06/02 05:00:30;;;;;;;14.60;6.93;;;17.80;51.60;;;;;;5007950;28;20042;-72
2021/06/02 05:03:31;;;;;;;11.07;6.40;;;18.30;50.70;;;;;;5006304;28;20450;-72
2021/06/02 05:06:29;;;;;;;10.00;5.40;;;18.80;50.30;;;;;;5006754;28;20133;-73
2021/06/02 05:09:34;;;;;;;6.72;4.72;;;19.10;49.50;;;;;;5011741;28;20057;-73
2021/06/02 05:12:22;;;;;;;9.10;5.18;;;19.30;49.60;;;;;;5005142;28;20053;-72
2021/06/02 05:15:35;;;;;;;17.98;5.03;;;20.00;48.70;;;;;;5010944;28;20096;-73
2021/06/02 05:18:29;;;;;;;12.82;6.10;;;20.80;47.50;;;;;;5007265;28;20084;-72
2021/06/02 05:24:00;;;;;;;9.73;5.68;;;22.10;45.50;;;;;;5009143;28;20132;-72
2021/06/02 05:26:57;;;;;;;10.30;5.20;;;22.80;44.50;;;;;;5009936;28;20567;-72
2021/06/02 05:29:55;;;;;;;11.13;6.20;;;23.10;43.80;;;;;;5007656;28;20077;-72
2021/06/02 05:32:47;;;;;;;9.73;5.47;;;21.60;46.20;;;;;;5006577;28;20570;-71
2021/06/02 05:35:51;;;;;;;10.50;5.05;;;23.40;44.00;;;;;;5024026;28;20045;-72
2021/06/02 05:38:49;;;;;;;9.85;4.95;;;22.60;44.20;;;;;;5006935;28;20140;-72
2021/06/02 05:41:33;;;;;;;15.55;5.55;;;20.60;46.00;;;;;;5006813;28;20112;-72
2021/06/02 05:44:26;;;;;;;8.43;5.13;;;19.80;48.50;;;;;;5024333;28;20675;-72
2021/06/02 05:47:31;;;;;;;8.25;5.13;;;19.30;49.00;;;;;;5006692;28;20152;-73
2021/06/02 05:50:34;;;;;;;17.92;5.90;;;18.80;50.20;;;;;;4988328;28;20042;-73
2021/06/02 05:53:29;;;;;;;11.52;5.95;;;18.60;51.10;;;;;;5006534;28;20136;-72
2021/06/02 05:56:08;;;;;;;11.13;6.22;;;18.50;51.70;;;;;;5022571;28;20145;-73
2021/06/02 05:58:57;;;;;;;10.20;6.15;;;18.40;52.10;;;;;;5024394;28;20445;-73
2021/06/02 06:01:47;;;;;;;11.93;5.72;;;18.40;52.20;;;;;;5008646;28;20406;-72
2021/06/02 06:04:52;;;;;;;10.05;5.60;;;18.60;52.30;;;;;;5007506;28;20046;-68
2021/06/02 06:07:40;;;;;;;16.77;7.25;;;19.00;51.50;;;;;;4991796;28;20144;-68
2021/06/02 06:10:29;;;;;;;10.85;5.30;;;19.50;50.60;;;;;;4989896;28;20504;-67
2021/06/02 06:13:15;;;;;;;16.42;5.80;;;19.60;50.60;;;;;;4991642;28;20061;-67
2021/06/02 06:16:35;;;;;;;16.75;5.82;;;19.40;50.80;;;;;;4991803;28;20056;-68
2021/06/02 06:19:32;;;;;;;9.95;5.13;;;19.20;51.70;;;;;;4998299;28;20058;-69
2021/06/02 06:22:05;;;;;;;14.65;7.22;;;19.10;51.40;;;;;;4992544;28;20107;-69
2021/06/02 06:24:47;;;;;;;10.40;5.15;;;19.10;50.90;;;;;;4989783;28;20052;-68
2021/06/02 06:27:24;;;;;;;13.90;5.82;;;19.00;51.20;;;;;;4992783;28;20480;-69
2021/06/02 06:30:14;;;;;;;10.82;5.47;;;19.00;51.00;;;;;;4991319;28;20145;-69
2021/06/02 06:32:42;;;;;;;7.45;4.88;;;19.00;50.60;;;;;;4991730;28;20148;-72
2021/06/02 06:35:10;;;;;;;17.65;4.88;;;19.20;50.40;;;;;;4990374;28;20219;-71
2021/06/02 06:37:42;;;;;;;11.38;4.68;;;22.40;47.60;;;;;;4990415;28;20069;-71
2021/06/02 06:40:21;;;;;;;10.77;4.25;;;24.60;43.00;;;;;;4990342;28;20061;-70
2021/06/02 06:42:52;;;;;;;4.72;2.80;;;24.40;42.40;;;;;;4990726;28;20160;-72
2021/06/02 06:45:33;;;;;;;4.43;2.50;;;23.90;40.20;;;;;;4990205;28;20058;-71
2021/06/02 06:48:22;;;;;;;6.72;2.60;;;23.40;40.30;;;;;;4991942;28;20049;-70
2021/06/02 06:50:53;;;;;;;6.03;2.20;;;22.20;40.90;;;;;;4992083;28;20104;-70
2021/06/02 06:53:21;;;;;;;4.32;2.38;;;21.50;42.40;;;;;;4990376;28;20053;-70
2021/06/02 06:55:51;;;;;;;7.68;2.50;;;22.90;41.50;;;;;;4993163;28;20396;-72
2021/06/02 06:58:20;;;;;;;4.05;2.08;;;21.90;42.10;;;;;;4989956;28;20053;-72
2021/06/02 07:00:47;;;;;;;7.90;2.50;;;21.90;41.70;;;;;;5012824;28;20084;-71
2021/06/02 07:03:14;;;;;;;3.33;2.25;;;21.00;42.70;;;;;;4990392;28;20127;-71
2021/06/02 07:05:42;;;;;;;3.47;2.28;;;20.80;43.50;;;;;;4989123;28;20050;-70
2021/06/02 07:08:11;;;;;;;7.00;2.30;;;20.80;43.60;;;;;;4990117;28;21085;-71
2021/06/02 07:10:38;;;;;;;6.78;2.67;;;20.60;43.30;;;;;;4991028;28;20165;-71
2021/06/02 07:13:10;;;;;;;8.57;2.10;;;20.60;43.20;;;;;;4990408;28;20061;-71
2021/06/02 07:15:38;;;;;;;3.85;2.13;;;20.60;42.80;;;;;;4990288;28;20078;-73
2021/06/02 07:18:06;;;;;;;5.22;2.50;;;20.60;42.30;;;;;;4991384;28;20140;-71
2021/06/02 07:20:35;;;;;;;5.40;2.00;;;20.70;42.50;;;;;;4991879;28;20054;-72
2021/06/02 07:23:02;;;;;;;4.43;2.58;;;20.70;42.70;;;;;;4990712;28;21416;-72
2021/06/02 07:25:32;;;;;;;2.88;2.00;;;20.80;42.80;;;;;;4991503;28;20096;-71
2021/06/02 07:28:04;;;;;;;10.63;2.43;;;22.70;42.10;;;;;;4993085;28;20073;-72
2021/06/02 07:30:31;;;;;;;3.95;1.98;;;24.80;38.60;;;;;;4995965;28;20132;-72
2021/06/02 07:32:57;;;;;;;4.07;2.10;;;23.40;38.80;;;;;;4994005;28;20473;-72
2021/06/02 07:35:25;;;;;;;3.50;2.33;;;22.40;40.60;;;;;;4994760;28;20074;-71
2021/06/02 07:37:52;;;;;;;4.65;2.30;;;21.80;41.30;;;;;;4992619;28;20132;-71
2021/06/02 07:40:19;;;;;;;5.03;2.40;;;21.30;42.70;;;;;;4994893;28;20089;-72
2021/06/02 07:42:46;;;;;;;3.42;2.10;;;21.00;43.60;;;;;;4994447;28;20133;-72
2021/06/02 07:45:15;;;;;;;5.47;2.05;;;21.10;43.20;;;;;;4995256;28;20132;-72
2021/06/02 07:47:42;;;;;;;3.95;2.20;;;21.00;42.60;;;;;;4993683;28;20145;-71
2021/06/02 07:50:10;;;;;;;5.88;1.95;;;21.10;41.50;;;;;;4995756;28;20577;-72
2021/06/02 07:52:37;;;;;;;4.68;2.15;;;21.10;41.80;;;;;;4992180;28;20170;-72
2021/06/02 07:55:04;;;;;;;2.97;2.00;;;21.20;42.20;;;;;;4995732;28;20141;-73
2021/06/02 07:57:32;;;;;;;4.78;2.15;;;21.10;41.90;;;;;;4993703;28;20120;-71
2021/06/02 07:59:59;;;;;;;3.78;2.17;;;21.20;41.10;;;;;;4995108;28;20540;-73
2021/06/02 08:02:25;;;;;;;8.75;2.15;;;21.20;41.00;;;;;;4993440;28;20131;-72
2021/06/02 08:04:52;;;;;;;3.65;1.73;;;21.30;40.10;;;;;;4993752;28;20137;-72
2021/06/02 08:07:19;;;;;;;3.38;1.60;;;21.40;40.80;;;;;;4993675;28;20054;-70
2021/06/02 08:09:48;;;;;;;5.35;1.67;;;21.40;40.80;;;;;;4992021;28;20565;-72
2021/06/02 08:12:17;;;;;;;86.88;9.27;;;21.40;39.90;;;;;;4994354;28;20076;-71
2021/06/02 08:14:44;;;;;;;50.25;5.32;;;21.40;40.00;;;;;;4994071;28;20050;-71
2021/06/02 08:17:11;;;;;;;23.58;3.22;;;21.50;39.30;;;;;;4993407;28;20553;-71
2021/06/02 08:19:38;;;;;;;47.33;4.82;;;21.60;39.60;;;;;;4994326;28;20056;-72
2021/06/02 08:22:05;;;;;;;3.75;1.77;;;21.60;40.00;;;;;;4991502;28;20116;-71
2021/06/02 08:24:37;;;;;;;4.88;1.80;;;21.70;38.30;;;;;;4993376;28;20050;-72
2021/06/02 08:27:05;;;;;;;3.33;1.55;;;21.80;38.90;;;;;;4992986;28;20062;-72
2021/06/02 08:29:32;;;;;;;5.65;1.90;;;21.90;38.60;;;;;;4993308;28;20795;-72
2021/06/02 08:31:58;;;;;;;3.53;1.58;;;21.90;40.00;;;;;;4990862;28;20137;-71
2021/06/02 08:34:25;;;;;;;2.47;1.70;;;22.00;38.40;;;;;;4993420;28;20084;-72
2021/06/02 08:36:53;;;;;;;2.92;1.45;;;22.00;38.00;;;;;;4991418;28;20135;-71
2021/06/02 08:39:19;;;;;;;3.00;1.65;;;22.00;37.80;;;;;;4990688;28;20172;-71
2021/06/02 08:41:50;;;;;;;6.18;1.45;;;22.00;38.70;;;;;;4993717;28;20140;-71
2021/06/02 08:44:19;;;;;;;6.70;1.60;;;22.00;40.20;;;;;;4993272;28;20584;-72
2021/06/02 08:46:47;;;;;;;1.63;1.30;;;22.00;39.20;;;;;;4993356;28;20156;-71
2021/06/02 08:49:15;;;;;;;1.95;1.40;;;21.90;37.80;;;;;;4992290;28;20161;-71
2021/06/02 08:51:42;;;;;;;5.40;1.30;;;22.10;37.60;;;;;;4991344;28;20104;-71
2021/06/02 08:54:09;;;;;;;2.75;1.67;;;22.10;36.80;;;;;;4992891;28;20145;-72
2021/06/02 08:56:42;;;;;;;2.25;1.30;;;22.10;40.00;;;;;;4993073;28;20077;-72
2021/06/02 08:59:09;;;;;;;4.43;1.55;;;22.20;37.80;;;;;;4992791;28;20073;-71
2021/06/02 09:01:37;;;;;;;11.02;1.42;;;22.20;37.10;;;;;;4991801;28;20150;-71
2021/06/02 09:04:08;;;;;;;4.07;1.30;;;22.30;36.50;;;;;;4995814;28;20073;-71
2021/06/02 09:06:47;;;;;;;4.38;1.50;;;22.40;36.70;;;;;;4999748;28;20565;-71
2021/06/02 09:09:15;;;;;;;2.95;1.33;;;22.50;35.70;;;;;;5001489;28;20236;-73
2021/06/02 09:11:45;;;;;;;8.10;1.80;;;22.60;37.30;;;;;;5000012;28;20080;-73
2021/06/02 09:14:21;;;;;;;7.78;1.83;;;22.60;36.40;;;;;;5002481;28;20506;-72
2021/06/02 09:17:14;;;;;;;5.00;1.65;;;22.70;35.80;;;;;;5002847;28;20141;-72
2021/06/02 09:19:46;;;;;;;3.08;1.20;;;22.90;34.90;;;;;;5018108;28;20078;-74
2021/06/02 09:22:20;;;;;;;2.70;1.25;;;23.00;35.50;;;;;;5000922;28;20057;-69
2021/06/02 09:25:02;;;;;;;4.50;1.25;;;22.90;34.70;;;;;;5002037;28;20140;-73
2021/06/02 09:27:54;;;;;;;3.53;1.50;;;22.80;34.20;;;;;;5000753;28;20069;-74
2021/06/02 09:30:27;;;;;;;4.95;1.55;;;23.00;34.70;;;;;;4997874;28;20106;-73
2021/06/02 09:32:58;;;;;;;2.80;1.60;;;23.40;33.40;;;;;;5001880;28;20136;-71
2021/06/02 09:35:37;;;;;;;1.63;1.10;;;23.30;34.90;;;;;;5002229;28;20145;-72
2021/06/02 09:38:05;;;;;;;3.55;1.25;;;23.10;34.40;;;;;;5001827;28;20077;-71
2021/06/02 09:40:35;;;;;;;4.88;1.63;;;23.10;34.20;;;;;;5022275;28;20082;-72
2021/06/02 09:43:05;;;;;;;6.75;1.42;;;23.00;36.60;;;;;;5002252;28;20054;-73
2021/06/02 09:45:33;;;;;;;2.83;1.70;;;23.10;34.00;;;;;;5002894;28;20046;-73
2021/06/02 09:48:02;;;;;;;2.25;1.38;;;23.30;35.50;;;;;;5001827;28;20164;-71
2021/06/02 09:50:40;;;;;;;3.63;1.45;;;23.20;35.40;;;;;;5001246;28;20148;-73
2021/06/02 09:53:08;;;;;;;3.30;1.60;;;23.20;34.70;;;;;;5003700;28;20120;-71
2021/06/02 09:55:41;;;;;;;11.77;1.50;;;23.10;36.50;;;;;;5002443;28;20081;-73
2021/06/02 09:58:09;;;;;;;1.52;1.35;;;23.30;35.70;;;;;;5003114;28;20138;-72
2021/06/02 10:00:40;;;;;;;6.97;1.50;;;23.20;34.70;;;;;;5002481;28;20065;-73
2021/06/02 10:03:18;;;;;;;2.78;1.27;;;23.40;36.40;;;;;;4997827;28;20077;-71
2021/06/02 10:05:47;;;;;;;3.72;1.35;;;23.40;35.10;;;;;;5001244;28;20046;-72
2021/06/02 10:08:24;;;;;;;3.30;1.30;;;23.40;35.00;;;;;;5001099;28;20520;-72
2021/06/02 10:10:55;;;;;;;2.35;1.40;;;23.70;34.00;;;;;;5003349;28;20057;-72
2021/06/02 10:13:24;;;;;;;3.35;1.42;;;23.80;34.70;;;;;;5002967;28;20141;-72
2021/06/02 10:15:53;;;;;;;3.92;1.42;;;23.90;34.20;;;;;;5002207;28;20503;-72
2021/06/02 10:18:29;;;;;;;2.28;1.27;;;23.70;33.50;;;;;;5006061;28;20045;-71
2021/06/02 10:21:08;;;;;;;6.18;1.30;;;23.60;33.90;;;;;;5002837;28;20053;-71
2021/06/02 10:23:40;;;;;;;5.87;1.67;;;23.90;32.60;;;;;;5002073;28;20133;-71
2021/06/02 10:26:08;;;;;;;29.17;16.13;;;23.70;32.20;;;;;;5002226;28;20080;-72
2021/06/02 10:28:35;;;;;;;35.42;22.08;;;23.70;33.90;;;;;;5002425;28;20049;-72
2021/06/02 10:31:06;;;;;;;14.57;8.55;;;23.70;34.00;;;;;;5002179;28;20064;-72
2021/06/02 10:33:34;;;;;;;12.13;6.93;;;23.90;32.70;;;;;;5000414;28;20050;-72
2021/06/02 10:36:05;;;;;;;56.65;34.53;;;24.00;32.10;;;;;;5001573;28;20525;-72
2021/06/02 10:38:41;;;;;;;39.40;22.63;;;24.00;34.40;;;;;;5000049;28;20569;-71
2021/06/02 10:41:09;;;;;;;22.33;13.10;;;23.90;34.10;;;;;;5003871;28;20046;-72
2021/06/02 10:43:44;;;;;;;3.60;2.80;;;23.90;33.10;;;;;;5002447;28;20046;-73
2021/06/02 10:46:23;;;;;;;14.30;8.23;;;23.90;31.00;;;;;;5002086;28;20125;-73
2021/06/02 10:49:00;;;;;;;82.90;50.17;;;24.00;31.10;;;;;;5000755;28;20081;-72
2021/06/02 10:51:42;;;;;;;19.25;11.00;;;24.20;34.60;;;;;;5001866;28;20079;-72
2021/06/02 10:54:28;;;;;;;31.67;18.88;;;24.10;31.20;;;;;;5001333;28;20041;-72
2021/06/02 10:56:54;;;;;;;47.85;28.15;;;24.20;34.30;;;;;;5001875;28;20176;-72
2021/06/02 10:59:28;;;;;;;36.03;21.90;;;24.10;35.00;;;;;;5004900;28;20850;-72
2021/06/02 11:02:18;;;;;;;50.65;29.95;;;24.20;33.40;;;;;;4999541;28;20149;-72
2021/06/02 11:04:54;;;;;;;15.18;8.05;;;24.10;33.20;;;;;;5004973;28;20441;-71
2021/06/02 11:07:36;;;;;;;23.40;12.82;;;24.40;31.60;;;;;;5003889;28;20128;-71
2021/06/02 11:10:06;;;;;;;17.52;10.55;;;24.50;32.10;;;;;;5006409;28;20480;-70
2021/06/02 11:12:52;;;;;;;;;;;24.50;33.40;;;;;;5006363;28;20148;-72
2021/06/02 11:15:46;;;;;;;2.88;1.65;;;24.60;33.40;;;;;;5006919;28;20355;-71
2021/06/02 11:18:18;;;;;;;38.33;23.42;;;24.60;31.40;;;;;;5006411;28;20137;-72
2021/06/02 11:20:49;;;;;;;15.35;9.07;;;24.50;33.30;;;;;;5004566;28;20048;-72
2021/06/02 11:23:21;;;;;;;5.53;3.50;;;24.60;32.90;;;;;;5005422;28;20125;-72
2021/06/02 11:25:49;;;;;;;10.35;6.53;;;24.60;32.10;;;;;;5006649;28;20056;-72
2021/06/02 11:28:45;;;;;;;25.23;14.85;;;24.60;31.80;;;;;;5001130;28;20137;-71
2021/06/02 11:31:28;;;;;;;8.30;4.72;;;24.60;32.60;;;;;;5006341;28;20085;-72
2021/06/02 11:34:27;;;;;;;35.97;20.05;;;24.60;31.40;;;;;;5006189;28;20450;-72
2021/06/02 11:36:58;;;;;;;24.63;15.52;;;24.60;34.80;;;;;;5003833;28;20156;-71
2021/06/02 11:39:24;;;;;;;44.85;25.30;;;24.50;33.10;;;;;;5005995;28;20052;-72
2021/06/02 11:41:57;;;;;;;27.13;16.63;;;24.60;34.50;;;;;;5006518;28;20060;-72
2021/06/02 11:44:27;;;;;;;30.88;17.45;;;24.60;33.90;;;;;;5005151;28;20141;-71
2021/06/02 11:46:54;;;;;;;46.08;29.10;;;24.70;33.80;;;;;;5006326;28;21456;-71
2021/06/02 11:49:34;;;;;;;32.63;12.38;;;24.70;35.50;;;;;;5004737;28;20081;-72
2021/06/02 11:52:10;;;;;;;22.77;13.73;;;24.90;32.40;;;;;;5003890;28;20054;-73
2021/06/02 11:54:53;;;;;;;11.52;7.05;;;25.00;33.80;;;;;;5005681;28;20204;-72
2021/06/02 11:57:24;;;;;;;12.48;6.28;;;25.40;30.70;;;;;;5005914;28;20054;-73
2021/06/02 11:59:51;;;;;;;5.93;2.20;;;25.40;31.90;;;;;;5005138;28;20145;-73
2021/06/02 12:02:18;;;;;;;7.38;3.67;;;25.40;31.80;;;;;;5025554;28;21165;-72
2021/06/02 12:04:45;;;;;;;4.47;2.13;;;25.70;32.20;;;;;;4997826;28;20046;-72
2021/06/02 12:07:25;;;;;;;5.65;2.55;;;25.50;30.90;;;;;;5004602;28;20049;-72
2021/06/02 12:09:53;;;;;;;5.25;3.25;;;25.50;31.30;;;;;;5002933;28;20140;-72
2021/06/02 12:12:22;;;;;;;5.28;3.13;;;25.90;32.20;;;;;;5003799;28;20058;-72
2021/06/02 12:14:53;;;;;;;11.65;6.20;;;26.30;31.10;;;;;;5004462;28;20064;-72
2021/06/02 12:17:30;;;;;;;5.22;2.38;;;27.40;30.00;;;;;;5002818;28;20050;-71
2021/06/02 12:20:00;;;;;;;10.95;5.32;;;29.00;28.20;;;;;;5024331;28;20048;-73
2021/06/02 12:22:27;;;;;;;22.42;7.05;;;32.70;27.40;;;;;;5005702;28;20164;-72
2021/06/02 12:25:13;;;;;;;3.28;1.80;;;36.40;24.20;;;;;;5004861;28;20148;-71
2021/06/02 12:27:54;;;;;;;8.85;4.20;;;38.10;23.70;;;;;;5005821;28;20049;-72
2021/06/02 12:30:36;;;;;;;2.47;1.42;;;40.30;21.00;;;;;;5005940;28;20598;-73
2021/06/02 12:33:08;;;;;;;1.65;1.40;;;39.40;20.60;;;;;;5004522;28;20065;-72
2021/06/02 12:35:36;;;;;;;3.60;1.38;;;37.30;21.00;;;;;;5005132;28;20145;-71
2021/06/02 12:38:18;;;;;;;6.22;1.65;;;37.20;20.90;;;;;;5005294;28;20085;-72
2021/06/02 12:40:48;;;;;;;8.77;4.70;;;38.00;21.10;;;;;;5004491;28;20129;-72
2021/06/02 12:43:20;;;;;;;8.93;5.20;;;40.70;21.50;;;;;;5005085;28;20581;-73
2021/06/02 12:45:50;;;;;;;10.20;6.50;;;41.30;21.00;;;;;;5004596;28;20048;-72
2021/06/02 12:48:30;;;;;;;2.87;1.50;;;41.10;22.20;;;;;;5004151;28;20152;-72
2021/06/02 12:50:57;;;;;;;6.43;4.72;;;41.00;20.10;;;;;;5004828;28;20485;-72
2021/06/02 12:53:39;;;;;;;4.50;1.30;;;38.30;21.50;;;;;;5004265;28;20124;-73
2021/06/02 12:56:07;;;;;;;4.70;1.20;;;36.60;22.00;;;;;;5007427;28;20084;-73
2021/06/02 12:58:35;;;;;;;3.28;2.70;;;33.80;23.20;;;;;;5002747;28;20148;-71
2021/06/02 13:01:08;;;;;;;6.88;1.67;;;34.20;24.80;;;;;;5002605;28;20100;-71
2021/06/02 13:03:39;;;;;;;5.72;3.70;;;33.10;23.60;;;;;;5003656;28;20062;-72
2021/06/02 13:06:06;;;;;;;2.03;1.52;;;32.00;26.10;;;;;;5024467;28;20418;-72
2021/06/02 13:08:41;;;;;;;4.90;3.50;;;32.30;24.10;;;;;;5003192;28;20229;-73
2021/06/02 13:11:12;;;;;;;4.03;3.15;;;32.30;25.70;;;;;;5004905;28;20140;-73
2021/06/02 13:13:47;;;;;;;5.75;2.38;;;32.70;25.70;;;;;;5003347;28;20084;-72
2021/06/02 13:16:14;;;;;;;4.20;2.30;;;32.20;25.10;;;;;;5003622;28;20069;-72
2021/06/02 13:18:41;;;;;;;3.10;2.55;;;31.90;25.20;;;;;;5003837;28;20560;-72
2021/06/02 13:21:15;;;;;;;6.47;1.83;;;32.50;25.50;;;;;;5003425;28;20065;-72
2021/06/02 13:23:43;;;;;;;2.78;1.73;;;32.10;25.10;;;;;;5021056;28;20145;-72
2021/06/02 13:26:13;;;;;;;3.03;2.08;;;32.70;24.70;;;;;;5003538;28;20530;-72
2021/06/02 13:28:53;;;;;;;5.57;2.85;;;32.30;25.10;;;;;;5001322;28;20181;-71
2021/06/02 13:31:36;;;;;;;4.93;2.25;;;32.10;27.00;;;;;;5003589;28;20554;-71
2021/06/02 13:34:03;;;;;;;4.38;2.72;;;32.00;25.80;;;;;;5023186;28;20145;-71